createdAt,value
2022-10-14T00:00:05.390Z,16.10
2022-10-14T00:02:57.849Z,16.10
2022-10-14T00:05:43.580Z,16.10
2022-10-14T00:08:29.498Z,16.20
2022-10-14T00:11:20.625Z,16.10
2022-10-14T00:14:13.213Z,16.10
2022-10-14T00:16:58.949Z,16.10
2022-10-14T00:19:44.375Z,16.00
2022-10-14T00:22:30.234Z,16.10
2022-10-14T00:25:15.949Z,16.10
2022-10-14T00:28:03.567Z,16.10
2022-10-14T00:31:02.110Z,16.30
2022-10-14T00:33:48.652Z,16.40
2022-10-14T00:36:34.343Z,16.30
2022-10-14T00:39:19.911Z,16.30
2022-10-14T00:42:05.397Z,16.30
2022-10-14T00:44:50.911Z,16.50
2022-10-14T00:47:36.535Z,16.50
2022-10-14T00:50:27.152Z,16.20
2022-10-14T00:53:14.338Z,16.00
2022-10-14T00:59:27.420Z,16.00
2022-10-14T01:02:12.961Z,15.90
2022-10-14T01:04:59.295Z,15.40
2022-10-14T01:08:09.654Z,15.20
2022-10-14T01:11:07.833Z,15.10
2022-10-14T01:14:10.922Z,15.10
2022-10-14T01:17:26.080Z,15.10
2022-10-14T01:20:57.153Z,15.00
2022-10-14T01:23:45.380Z,15.40
2022-10-14T01:26:43.193Z,15.50
2022-10-14T01:29:47.541Z,15.50
2022-10-14T01:32:49.092Z,15.40
2022-10-14T01:35:58.339Z,15.50
2022-10-14T01:39:20.407Z,15.70
2022-10-14T01:42:11.690Z,15.70
2022-10-14T01:45:22.955Z,15.30
2022-10-14T01:48:10.867Z,15.40
2022-10-14T01:51:00.601Z,15.70
2022-10-14T01:54:04.178Z,15.70
2022-10-14T01:56:51.193Z,15.70
2022-10-14T01:59:40.209Z,15.80
2022-10-14T02:02:26.334Z,15.90
2022-10-14T02:05:27.437Z,16.00
2022-10-14T02:08:52.621Z,16.00
2022-10-14T02:12:00.759Z,15.80
2022-10-14T02:15:24.105Z,15.70
2022-10-14T02:18:22.283Z,15.70
2022-10-14T02:21:26.940Z,15.70
2022-10-14T02:24:30.850Z,15.90
2022-10-14T02:27:19.974Z,15.80
2022-10-14T02:30:07.678Z,15.70
2022-10-14T02:32:54.114Z,15.70
2022-10-14T02:35:41.859Z,15.60
2022-10-14T02:38:30.200Z,15.40
2022-10-14T02:41:19.725Z,15.40
2022-10-14T02:44:06.428Z,15.50
2022-10-14T02:46:54.449Z,15.40
2022-10-14T02:49:40.254Z,15.30
2022-10-14T02:52:25.983Z,15.30
2022-10-14T02:55:12.186Z,15.50
2022-10-14T02:57:57.577Z,15.40
2022-10-14T03:00:45.495Z,15.00
2022-10-14T03:03:31.731Z,15.30
2022-10-14T03:06:17.852Z,15.60
2022-10-14T03:09:04.113Z,15.30
2022-10-14T03:11:54.114Z,15.10
2022-10-14T03:14:41.022Z,15.50
2022-10-14T03:17:31.671Z,15.60
2022-10-14T03:20:21.743Z,15.80
2022-10-14T03:23:12.073Z,15.80
2022-10-14T03:25:59.015Z,15.70
2022-10-14T03:28:49.591Z,15.70
2022-10-14T03:31:42.059Z,15.90
2022-10-14T03:34:49.692Z,15.90
2022-10-14T03:37:41.985Z,15.80
2022-10-14T03:40:27.335Z,15.90
2022-10-14T03:43:13.406Z,15.70
2022-10-14T03:46:08.096Z,15.50
2022-10-14T03:48:54.916Z,15.40
2022-10-14T03:51:40.669Z,15.40
2022-10-14T03:54:34.647Z,15.10
2022-10-14T03:57:20.157Z,15.00
2022-10-14T04:00:11.271Z,15.00
2022-10-14T04:02:59.995Z,14.90
2022-10-14T04:05:53.802Z,14.80
2022-10-14T04:08:42.780Z,14.90
2022-10-14T04:11:40.805Z,14.90
2022-10-14T04:14:29.934Z,14.90
2022-10-14T04:17:15.979Z,14.90
2022-10-14T04:20:02.802Z,14.90
2022-10-14T04:22:48.129Z,14.90
2022-10-14T04:25:39.355Z,14.90
2022-10-14T04:28:25.589Z,14.80
2022-10-14T04:31:22.714Z,14.90
2022-10-14T04:34:17.307Z,14.90
2022-10-14T04:37:03.357Z,14.90
2022-10-14T04:40:14.128Z,14.90
2022-10-14T04:43:05.038Z,15.10
2022-10-14T04:45:57.409Z,15.30
2022-10-14T04:48:48.512Z,15.30
2022-10-14T04:51:35.412Z,15.20
2022-10-14T04:54:20.887Z,15.00
2022-10-14T04:57:11.341Z,15.10
2022-10-14T04:59:58.262Z,15.10
2022-10-14T05:03:02.679Z,15.00
2022-10-14T05:05:52.691Z,15.10
2022-10-14T05:08:39.355Z,15.10
2022-10-14T05:11:29.669Z,15.00
2022-10-14T05:14:16.329Z,15.00
2022-10-14T05:17:12.359Z,14.90
2022-10-14T05:19:58.614Z,14.90
2022-10-14T05:22:46.144Z,14.80
2022-10-14T05:25:31.840Z,14.80
2022-10-14T05:28:19.179Z,15.00
2022-10-14T05:31:11.346Z,15.10
2022-10-14T05:34:06.855Z,15.20
2022-10-14T05:36:53.444Z,15.20
2022-10-14T05:39:40.751Z,15.20
2022-10-14T05:42:26.572Z,15.20
2022-10-14T05:45:15.480Z,14.30
2022-10-14T05:48:07.482Z,14.90
2022-10-14T05:50:54.708Z,15.10
2022-10-14T05:53:43.594Z,15.30
2022-10-14T05:56:34.427Z,15.50
2022-10-14T05:59:22.452Z,15.50
2022-10-14T06:02:09.700Z,15.50
2022-10-14T06:04:56.514Z,15.60
2022-10-14T06:07:42.729Z,15.30
2022-10-14T06:10:28.226Z,15.50
2022-10-14T06:13:14.297Z,15.50
2022-10-14T06:16:05.721Z,15.40
2022-10-14T06:18:54.437Z,15.50
2022-10-14T06:21:41.203Z,15.20
2022-10-14T06:24:27.022Z,15.30
2022-10-14T06:27:15.412Z,15.70
2022-10-14T06:30:01.506Z,15.90
2022-10-14T06:32:47.722Z,14.60
2022-10-14T06:35:33.228Z,16.00
2022-10-14T06:38:19.087Z,16.10
2022-10-14T06:41:04.903Z,16.30
2022-10-14T06:43:50.554Z,17.80
2022-10-14T06:46:35.946Z,16.70
2022-10-14T06:49:21.663Z,16.70
2022-10-14T06:52:07.574Z,16.70
2022-10-14T06:54:54.640Z,16.70
2022-10-14T06:57:40.604Z,16.80
2022-10-14T07:00:26.259Z,16.70
2022-10-14T07:03:14.242Z,16.70
2022-10-14T07:06:03.979Z,16.90
2022-10-14T07:08:49.688Z,17.20
2022-10-14T07:11:35.631Z,17.30
2022-10-14T07:14:21.297Z,17.30
2022-10-14T07:17:12.742Z,17.40
2022-10-14T07:19:59.561Z,17.50
2022-10-14T07:22:45.795Z,17.70
2022-10-14T07:25:32.806Z,17.90
2022-10-14T07:28:19.950Z,18.20
2022-10-14T07:31:11.015Z,18.50
2022-10-14T07:33:56.974Z,18.60
2022-10-14T07:36:42.432Z,19.00
2022-10-14T07:39:29.029Z,19.30
2022-10-14T07:42:14.949Z,19.70
2022-10-14T07:45:03.249Z,19.80
2022-10-14T07:47:51.090Z,20.00
2022-10-14T07:50:39.907Z,20.50
2022-10-14T07:53:25.927Z,19.70
2022-10-14T07:56:11.798Z,20.40
2022-10-14T07:58:58.844Z,20.80
2022-10-14T08:01:47.606Z,21.20
2022-10-14T08:04:34.303Z,21.80
2022-10-14T08:07:22.587Z,22.70
2022-10-14T08:10:08.998Z,21.80
2022-10-14T08:12:58.904Z,21.20
2022-10-14T08:15:44.612Z,21.10
2022-10-14T08:18:30.619Z,21.20
2022-10-14T08:21:18.711Z,20.60
2022-10-14T08:24:04.561Z,20.30
2022-10-14T08:26:55.384Z,21.00
2022-10-14T08:29:42.335Z,21.20
2022-10-14T08:32:28.248Z,21.50
2022-10-14T08:35:14.132Z,22.00
2022-10-14T08:38:01.484Z,22.70
2022-10-14T08:41:00.056Z,23.80
2022-10-14T08:43:58.008Z,24.10
2022-10-14T08:46:55.013Z,24.30
2022-10-14T08:49:59.528Z,23.40
2022-10-14T08:52:53.850Z,23.40
2022-10-14T08:55:41.205Z,23.20
2022-10-14T08:58:41.987Z,23.60
2022-10-14T09:01:34.936Z,24.70
2022-10-14T09:04:21.519Z,24.60
2022-10-14T09:07:09.447Z,24.70
2022-10-14T09:10:00.877Z,24.20
2022-10-14T09:12:46.576Z,23.60
2022-10-14T09:15:41.209Z,23.10
2022-10-14T09:18:38.501Z,23.40
2022-10-14T09:21:40.685Z,22.80
2022-10-14T09:24:38.096Z,23.00
2022-10-14T09:27:24.369Z,24.10
2022-10-14T09:30:16.782Z,23.90
2022-10-14T09:33:03.970Z,24.30
2022-10-14T09:36:00.397Z,23.90
2022-10-14T09:38:52.662Z,23.60
2022-10-14T09:41:39.462Z,23.80
2022-10-14T09:44:26.223Z,23.60
2022-10-14T09:47:14.097Z,24.00
2022-10-14T09:50:00.879Z,25.00
2022-10-14T09:53:15.154Z,24.80
2022-10-14T09:56:03.226Z,25.80
2022-10-14T09:58:56.936Z,25.10
2022-10-14T10:01:50.779Z,24.60
2022-10-14T10:04:47.782Z,24.50
2022-10-14T10:07:38.155Z,24.40
2022-10-14T10:10:25.578Z,24.00
2022-10-14T10:13:33.352Z,23.20
2022-10-14T10:16:23.869Z,22.60
2022-10-14T10:19:27.874Z,22.90
2022-10-14T10:25:10.029Z,23.50
2022-10-14T10:27:59.921Z,23.60
2022-10-14T10:31:19.370Z,23.40
2022-10-14T10:34:50.255Z,23.30
2022-10-14T10:38:01.547Z,23.50
2022-10-14T10:40:56.672Z,23.10
2022-10-14T10:44:11.198Z,23.10
2022-10-14T10:47:24.345Z,23.30
2022-10-14T10:50:48.805Z,23.10
2022-10-14T10:53:37.466Z,23.00
2022-10-14T10:56:45.713Z,22.80
2022-10-14T10:59:35.426Z,21.60
2022-10-14T11:02:50.865Z,21.60
2022-10-14T11:06:10.842Z,22.40
2022-10-14T11:09:24.005Z,22.40
2022-10-14T11:12:32.624Z,21.30
2022-10-14T11:16:08.015Z,21.90
2022-10-14T11:19:09.755Z,22.90
2022-10-14T11:22:11.525Z,23.70
2022-10-14T11:25:19.021Z,23.80
2022-10-14T11:28:43.902Z,22.60
2022-10-14T11:31:59.848Z,22.90
2022-10-14T11:35:17.152Z,23.40
2022-10-14T11:38:05.511Z,23.90
2022-10-14T11:41:10.650Z,23.90
2022-10-14T11:44:16.665Z,23.70
2022-10-14T11:47:10.455Z,23.50
2022-10-14T11:50:14.421Z,22.50
2022-10-14T11:53:42.499Z,22.70
2022-10-14T11:56:54.876Z,22.90
2022-10-14T11:59:51.014Z,23.70
2022-10-14T12:03:03.000Z,24.30
2022-10-14T12:06:02.166Z,23.70
2022-10-14T12:09:00.414Z,23.40
2022-10-14T12:11:57.756Z,23.50
2022-10-14T12:14:55.563Z,22.50
2022-10-14T12:18:01.824Z,23.00
2022-10-14T12:20:59.260Z,22.90
2022-10-14T12:24:16.249Z,23.10
2022-10-14T12:27:05.823Z,23.10
2022-10-14T12:29:53.185Z,22.80
2022-10-14T12:33:03.747Z,22.50
2022-10-14T12:36:00.212Z,23.20
2022-10-14T12:39:18.082Z,24.00
2022-10-14T12:42:12.639Z,24.30
2022-10-14T12:45:01.662Z,24.50
2022-10-14T12:47:47.526Z,24.60
2022-10-14T12:50:39.717Z,24.80
2022-10-14T12:53:34.567Z,24.90
2022-10-14T12:56:35.581Z,23.10
2022-10-14T12:59:39.676Z,23.40
2022-10-14T13:02:38.232Z,23.00
2022-10-14T13:05:32.854Z,23.20
2022-10-14T13:08:25.937Z,23.60
2022-10-14T13:11:14.764Z,23.70
2022-10-14T13:14:01.773Z,23.80
2022-10-14T13:16:51.866Z,23.80
2022-10-14T13:19:37.517Z,23.70
2022-10-14T13:22:33.091Z,23.80
2022-10-14T13:25:21.609Z,23.60
2022-10-14T13:28:30.190Z,23.20
2022-10-14T13:31:29.642Z,23.60
2022-10-14T13:34:39.720Z,23.40
2022-10-14T13:37:46.508Z,23.20
2022-10-14T13:40:37.446Z,22.80
2022-10-14T13:43:36.312Z,22.50
2022-10-14T13:46:41.375Z,22.40
2022-10-14T13:49:38.116Z,22.40
2022-10-14T13:52:25.975Z,22.80
2022-10-14T13:55:19.342Z,23.40
2022-10-14T13:58:17.518Z,23.40
2022-10-14T14:01:06.773Z,22.80
2022-10-14T14:03:56.296Z,22.90
2022-10-14T14:07:03.073Z,23.30
2022-10-14T14:09:58.333Z,23.60
2022-10-14T14:12:44.324Z,22.50
2022-10-14T14:15:30.613Z,22.30
2022-10-14T14:18:49.518Z,22.30
2022-10-14T14:21:42.189Z,22.00
2022-10-14T14:24:29.759Z,22.50
2022-10-14T14:27:17.042Z,22.80
2022-10-14T14:30:08.352Z,22.40
2022-10-14T14:32:55.923Z,22.20
2022-10-14T14:35:52.180Z,22.30
2022-10-14T14:38:53.536Z,22.30
2022-10-14T14:41:39.279Z,22.20
2022-10-14T14:44:27.842Z,22.60
2022-10-14T14:47:13.871Z,22.80
2022-10-14T14:50:25.285Z,22.30
2022-10-14T14:53:12.151Z,23.50
2022-10-14T14:56:07.856Z,22.70
2022-10-14T14:59:03.174Z,22.80
2022-10-14T15:01:49.922Z,21.50
2022-10-14T15:04:35.621Z,22.10
2022-10-14T15:07:25.732Z,22.20
2022-10-14T15:10:24.361Z,22.10
2022-10-14T15:13:26.756Z,22.50
2022-10-14T15:16:12.633Z,22.80
2022-10-14T15:19:28.041Z,22.70
2022-10-14T15:22:16.776Z,22.30
2022-10-14T15:25:02.295Z,22.20
2022-10-14T15:27:53.685Z,22.40
2022-10-14T15:30:42.153Z,22.30
2022-10-14T15:33:27.939Z,22.10
2022-10-14T15:36:14.059Z,21.90
2022-10-14T15:39:01.501Z,22.30
2022-10-14T15:41:47.691Z,22.10
2022-10-14T15:44:33.516Z,22.40
2022-10-14T15:47:19.234Z,22.40
2022-10-14T15:50:13.019Z,22.60
2022-10-14T15:52:59.161Z,22.60
2022-10-14T15:55:45.408Z,22.40
2022-10-14T15:58:33.667Z,22.30
2022-10-14T16:01:23.512Z,22.50
2022-10-14T16:04:24.824Z,22.40
2022-10-14T16:07:14.660Z,22.30
2022-10-14T16:10:03.461Z,21.90
2022-10-14T16:12:49.949Z,21.70
2022-10-14T16:15:56.308Z,21.60
2022-10-14T16:18:42.336Z,21.60
2022-10-14T16:21:31.399Z,21.70
2022-10-14T16:24:20.213Z,21.80
2022-10-14T16:27:05.989Z,21.70
2022-10-14T16:29:51.826Z,21.60
2022-10-14T16:32:38.454Z,21.50
2022-10-14T16:35:24.670Z,21.60
2022-10-14T16:38:15.264Z,21.50
2022-10-14T16:41:02.854Z,21.50
2022-10-14T16:43:48.621Z,21.40
2022-10-14T16:46:54.802Z,21.40
2022-10-14T16:49:40.659Z,21.30
2022-10-14T16:52:26.964Z,21.30
2022-10-14T16:55:12.370Z,21.30
2022-10-14T16:57:58.124Z,21.30
2022-10-14T17:00:43.582Z,21.20
2022-10-14T17:03:30.067Z,21.40
2022-10-14T17:06:21.693Z,21.50
2022-10-14T17:09:09.882Z,21.20
2022-10-14T17:11:55.268Z,21.80
2022-10-14T17:14:41.059Z,21.70
2022-10-14T17:17:26.930Z,21.50
2022-10-14T17:20:12.686Z,21.40
2022-10-14T17:23:00.650Z,21.40
2022-10-14T17:25:46.838Z,21.40
2022-10-14T17:28:33.165Z,21.10
2022-10-14T17:31:20.556Z,21.00
2022-10-14T17:34:06.466Z,21.00
2022-10-14T17:36:54.434Z,20.80
2022-10-14T17:39:40.327Z,20.90
2022-10-14T17:42:25.827Z,21.00
2022-10-14T17:45:12.149Z,20.90
2022-10-14T17:47:58.001Z,20.80
2022-10-14T17:50:47.949Z,20.60
2022-10-14T17:53:33.592Z,20.60
2022-10-14T17:56:19.265Z,20.60
2022-10-14T17:59:08.096Z,20.50
2022-10-14T18:02:08.832Z,20.40
2022-10-14T18:04:54.302Z,20.20
2022-10-14T18:07:40.053Z,20.10
2022-10-14T18:10:25.676Z,20.30
2022-10-14T18:13:11.482Z,20.50
2022-10-14T18:16:03.031Z,20.60
2022-10-14T18:18:48.547Z,20.60
2022-10-14T18:21:37.177Z,20.70
2022-10-14T18:24:23.581Z,20.80
2022-10-14T18:27:10.178Z,20.70
2022-10-14T18:29:55.859Z,20.80
2022-10-14T18:32:41.704Z,20.60
2022-10-14T18:35:27.358Z,20.50
2022-10-14T18:38:12.953Z,20.40
2022-10-14T18:41:04.686Z,20.30
2022-10-14T18:43:50.663Z,20.20
2022-10-14T18:46:37.762Z,20.10
2022-10-14T18:49:23.797Z,20.10
2022-10-14T18:52:09.596Z,20.10
2022-10-14T18:54:55.442Z,20.20
2022-10-14T18:57:41.002Z,20.20
2022-10-14T19:00:26.890Z,20.10
2022-10-14T19:03:12.469Z,20.10
2022-10-14T19:05:58.966Z,20.10
2022-10-14T19:08:46.109Z,20.10
2022-10-14T19:11:34.286Z,20.00
2022-10-14T19:14:20.917Z,20.10
2022-10-14T19:17:06.506Z,20.20
2022-10-14T19:19:52.141Z,20.20
2022-10-14T19:22:40.788Z,20.20
2022-10-14T19:25:26.721Z,20.20
2022-10-14T19:28:12.264Z,20.30
2022-10-14T19:30:57.690Z,20.30
2022-10-14T19:33:44.958Z,20.30
2022-10-14T19:36:33.837Z,20.20
2022-10-14T19:39:19.769Z,20.20
2022-10-14T19:42:05.527Z,20.20
2022-10-14T19:44:51.519Z,20.20
2022-10-14T19:47:37.182Z,20.00
2022-10-14T19:50:23.023Z,20.00
2022-10-14T19:53:09.092Z,20.00
2022-10-14T19:56:03.557Z,19.90
2022-10-14T19:58:54.597Z,19.90
2022-10-14T20:01:40.511Z,20.00
2022-10-14T20:04:27.389Z,20.10
2022-10-14T20:07:14.446Z,20.10
2022-10-14T20:10:02.650Z,20.10
2022-10-14T20:12:48.917Z,20.00
2022-10-14T20:15:34.737Z,19.90
2022-10-14T20:18:20.336Z,19.90
2022-10-14T20:21:07.861Z,20.00
2022-10-14T20:23:53.601Z,19.90
2022-10-14T20:26:39.243Z,20.00
2022-10-14T20:29:24.920Z,20.00
2022-10-14T20:32:10.671Z,20.00
2022-10-14T20:34:56.218Z,20.10
2022-10-14T20:37:41.738Z,20.00
2022-10-14T20:40:27.282Z,20.00
2022-10-14T20:43:12.937Z,19.90
2022-10-14T20:45:58.468Z,19.80
2022-10-14T20:48:43.907Z,19.80
2022-10-14T20:51:29.231Z,19.70
2022-10-14T20:54:14.880Z,19.70
2022-10-14T20:57:00.954Z,19.60
2022-10-14T20:59:46.426Z,19.60
2022-10-14T21:02:32.370Z,19.50
2022-10-14T21:05:19.223Z,19.50
2022-10-14T21:08:05.589Z,19.50
2022-10-14T21:11:00.759Z,19.40
2022-10-14T21:13:48.726Z,19.40
2022-10-14T21:16:35.972Z,19.40
2022-10-14T21:19:22.124Z,19.40
2022-10-14T21:22:09.330Z,19.20
2022-10-14T21:24:54.975Z,19.20
2022-10-14T21:27:40.493Z,19.10
2022-10-14T21:30:26.160Z,19.10
2022-10-14T21:33:11.382Z,19.10
2022-10-14T21:36:05.801Z,19.10
2022-10-14T21:41:45.510Z,19.00
2022-10-14T21:44:31.267Z,19.10
2022-10-14T21:47:16.701Z,19.00
2022-10-14T21:50:02.765Z,19.00
2022-10-14T21:52:48.355Z,18.90
2022-10-14T21:55:33.952Z,18.90
2022-10-14T21:58:19.534Z,18.90
2022-10-14T22:01:14.537Z,18.70
2022-10-14T22:04:06.084Z,18.70
2022-10-14T22:06:51.538Z,18.80
2022-10-14T22:09:37.311Z,18.80
2022-10-14T22:12:24.492Z,18.70
2022-10-14T22:15:10.329Z,18.70
2022-10-14T22:17:56.252Z,18.70
2022-10-14T22:20:41.839Z,18.70
2022-10-14T22:23:27.380Z,18.60
2022-10-14T22:26:15.056Z,18.50
2022-10-14T22:29:19.368Z,18.40
2022-10-14T22:32:05.180Z,18.40
2022-10-14T22:34:50.836Z,18.40
2022-10-14T22:37:36.410Z,18.40
2022-10-14T22:40:22.149Z,18.10
2022-10-14T22:43:07.923Z,17.90
2022-10-14T22:46:06.403Z,17.70
2022-10-14T22:48:56.909Z,17.90
2022-10-14T22:51:42.403Z,18.10
2022-10-14T22:54:27.904Z,18.30
2022-10-14T22:57:15.717Z,18.20
2022-10-14T23:00:01.543Z,18.10
2022-10-14T23:02:47.557Z,18.10
2022-10-14T23:05:33.054Z,18.00
2022-10-14T23:08:27.081Z,17.90
2022-10-14T23:11:15.265Z,17.90
2022-10-14T23:14:04.406Z,17.80
2022-10-14T23:16:52.698Z,17.90
2022-10-14T23:19:38.110Z,17.90
2022-10-14T23:22:23.865Z,17.80
2022-10-14T23:25:09.871Z,17.60
2022-10-14T23:27:55.247Z,17.80
2022-10-14T23:30:41.071Z,18.00
2022-10-14T23:33:26.757Z,18.00
2022-10-14T23:36:13.759Z,17.70
2022-10-14T23:38:59.621Z,17.70
2022-10-14T23:41:45.003Z,17.70
2022-10-14T23:44:31.630Z,17.70
2022-10-14T23:47:17.457Z,18.00
2022-10-14T23:50:03.309Z,18.20
2022-10-14T23:52:48.944Z,18.20
2022-10-14T23:55:34.410Z,18.10
2022-10-14T23:58:19.971Z,18.10
